sensor_id;sensor_type;location;lat;lon;timestamp;P1;durP1;ratioP1;P2;durP2;ratioP2
12171;SDS011;6149;52.418;13.668;2023-04-01T06:40:12;13.60;;;9.13;;
12171;SDS011;6149;52.418;13.668;2023-04-01T06:43:00;10.23;;;7.27;;
12171;SDS011;6149;52.418;13.668;2023-04-01T06:45:41;11.10;;;7.43;;
12171;SDS011;6149;52.418;13.668;2023-04-01T06:48:23;8.87;;;7.60;;
12171;SDS011;6149;52.418;13.668;2023-04-01T06:51:07;9.43;;;6.40;;
12171;SDS011;6149;52.418;13.668;2023-04-01T06:53:47;9.60;;;6.77;;
12171;SDS011;6149;52.418;13.668;2023-04-01T06:56:23;11.40;;;6.60;;
12171;SDS011;6149;52.418;13.668;2023-04-01T06:58:53;12.17;;;7.10;;
12171;SDS011;6149;52.418;13.668;2023-04-01T07:01:26;9.27;;;6.47;;
12171;SDS011;6149;52.418;13.668;2023-04-01T07:03:59;11.00;;;6.30;;
12171;SDS011;6149;52.418;13.668;2023-04-01T07:06:32;8.30;;;6.07;;
12171;SDS011;6149;52.418;13.668;2023-04-01T07:09:04;10.83;;;7.93;;
12171;SDS011;6149;52.418;13.668;2023-04-01T07:11:37;11.03;;;6.93;;
12171;SDS011;6149;52.418;13.668;2023-04-01T07:14:06;9.97;;;6.37;;
12171;SDS011;6149;52.418;13.668;2023-04-01T07:16:43;8.27;;;6.27;;
12171;SDS011;6149;52.418;13.668;2023-04-01T07:19:18;10.93;;;6.27;;
12171;SDS011;6149;52.418;13.668;2023-04-01T07:21:50;7.47;;;5.77;;
12171;SDS011;6149;52.418;13.668;2023-04-01T07:24:22;9.20;;;5.90;;
12171;SDS011;6149;52.418;13.668;2023-04-01T07:26:55;9.00;;;5.50;;
12171;SDS011;6149;52.418;13.668;2023-04-01T07:29:23;8.30;;;5.70;;
12171;SDS011;6149;52.418;13.668;2023-04-01T07:34:50;11.13;;;7.03;;
12171;SDS011;6149;52.418;13.668;2023-04-01T07:37:30;12.07;;;6.60;;
12171;SDS011;6149;52.418;13.668;2023-04-01T07:40:12;9.27;;;7.40;;
12171;SDS011;6149;52.418;13.668;2023-04-01T07:42:57;9.60;;;6.33;;
12171;SDS011;6149;52.418;13.668;2023-04-01T07:45:55;11.53;;;7.00;;
12171;SDS011;6149;52.418;13.668;2023-04-01T07:48:30;10.47;;;7.40;;
12171;SDS011;6149;52.418;13.668;2023-04-01T07:51:07;9.37;;;7.20;;
12171;SDS011;6149;52.418;13.668;2023-04-01T07:53:42;7.87;;;5.73;;
12171;SDS011;6149;52.418;13.668;2023-04-01T07:56:25;9.60;;;6.33;;
12171;SDS011;6149;52.418;13.668;2023-04-01T07:59:01;9.00;;;6.50;;
12171;SDS011;6149;52.418;13.668;2023-04-01T08:01:39;7.10;;;4.97;;
12171;SDS011;6149;52.418;13.668;2023-04-01T08:04:23;7.57;;;5.70;;
12171;SDS011;6149;52.418;13.668;2023-04-01T08:07:03;9.87;;;5.33;;
12171;SDS011;6149;52.418;13.668;2023-04-01T08:09:38;8.20;;;4.20;;
12171;SDS011;6149;52.418;13.668;2023-04-01T08:12:13;5.43;;;3.60;;
12171;SDS011;6149;52.418;13.668;2023-04-01T08:14:59;6.37;;;3.90;;
12171;SDS011;6149;52.418;13.668;2023-04-01T08:17:39;5.43;;;2.77;;
12171;SDS011;6149;52.418;13.668;2023-04-01T08:20:23;6.17;;;3.60;;
12171;SDS011;6149;52.418;13.668;2023-04-01T08:22:57;5.30;;;4.13;;
12171;SDS011;6149;52.418;13.668;2023-04-01T08:25:28;6.80;;;5.80;;
12171;SDS011;6149;52.418;13.668;2023-04-01T08:27:57;7.40;;;4.57;;
12171;SDS011;6149;52.418;13.668;2023-04-01T08:30:35;3.93;;;2.60;;
12171;SDS011;6149;52.418;13.668;2023-04-01T08:33:11;5.63;;;2.33;;
12171;SDS011;6149;52.418;13.668;2023-04-01T08:35:43;4.20;;;2.97;;
12171;SDS011;6149;52.418;13.668;2023-04-01T08:38:17;3.70;;;2.70;;
12171;SDS011;6149;52.418;13.668;2023-04-01T08:40:53;3.30;;;2.60;;
12171;SDS011;6149;52.418;13.668;2023-04-01T08:43:35;4.30;;;2.80;;
12171;SDS011;6149;52.418;13.668;2023-04-01T08:46:51;4.63;;;2.50;;
12171;SDS011;6149;52.418;13.668;2023-04-01T08:49:41;4.27;;;2.67;;
12171;SDS011;6149;52.418;13.668;2023-04-01T08:52:39;3.40;;;2.13;;
12171;SDS011;6149;52.418;13.668;2023-04-01T08:55:21;4.77;;;2.30;;
12171;SDS011;6149;52.418;13.668;2023-04-01T08:58:11;5.30;;;2.50;;
12171;SDS011;6149;52.418;13.668;2023-04-01T09:00:55;5.60;;;2.40;;
12171;SDS011;6149;52.418;13.668;2023-04-01T09:03:39;4.03;;;2.20;;
12171;SDS011;6149;52.418;13.668;2023-04-01T09:06:21;5.50;;;2.90;;
12171;SDS011;6149;52.418;13.668;2023-04-01T09:12:01;4.03;;;3.37;;
12171;SDS011;6149;52.418;13.668;2023-04-01T09:14:59;5.63;;;4.37;;
12171;SDS011;6149;52.418;13.668;2023-04-01T09:21:06;4.80;;;4.20;;
12171;SDS011;6149;52.418;13.668;2023-04-01T09:26:51;4.73;;;3.87;;
12171;SDS011;6149;52.418;13.668;2023-04-01T09:29:40;4.10;;;3.70;;
12171;SDS011;6149;52.418;13.668;2023-04-01T09:32:40;4.87;;;4.37;;
12171;SDS011;6149;52.418;13.668;2023-04-01T09:35:22;5.13;;;4.63;;
12171;SDS011;6149;52.418;13.668;2023-04-01T09:37:57;5.50;;;4.80;;
12171;SDS011;6149;52.418;13.668;2023-04-01T09:40:42;6.53;;;5.43;;
12171;SDS011;6149;52.418;13.668;2023-04-01T09:43:22;6.97;;;5.87;;
12171;SDS011;6149;52.418;13.668;2023-04-01T09:45:57;6.43;;;5.43;;
12171;SDS011;6149;52.418;13.668;2023-04-01T09:48:42;7.60;;;6.57;;
12171;SDS011;6149;52.418;13.668;2023-04-01T09:51:36;7.30;;;6.57;;
12171;SDS011;6149;52.418;13.668;2023-04-01T09:54:20;6.80;;;6.10;;
12171;SDS011;6149;52.418;13.668;2023-04-01T09:57:18;6.30;;;5.73;;
12171;SDS011;6149;52.418;13.668;2023-04-01T10:00:29;7.53;;;6.50;;
12171;SDS011;6149;52.418;13.668;2023-04-01T10:16:45;8.97;;;8.07;;
12171;SDS011;6149;52.418;13.668;2023-04-01T10:19:44;9.70;;;7.53;;
12171;SDS011;6149;52.418;13.668;2023-04-01T10:22:43;10.50;;;8.20;;
12171;SDS011;6149;52.418;13.668;2023-04-01T10:25:31;9.53;;;8.63;;
12171;SDS011;6149;52.418;13.668;2023-04-01T10:28:30;9.47;;;8.47;;
12171;SDS011;6149;52.418;13.668;2023-04-01T10:37:42;12.10;;;11.00;;
12171;SDS011;6149;52.418;13.668;2023-04-01T10:40:54;12.50;;;11.20;;
12171;SDS011;6149;52.418;13.668;2023-04-01T10:43:54;10.07;;;9.07;;
12171;SDS011;6149;52.418;13.668;2023-04-01T10:46:50;9.67;;;8.67;;
12171;SDS011;6149;52.418;13.668;2023-04-01T10:49:55;9.67;;;8.13;;
12171;SDS011;6149;52.418;13.668;2023-04-01T10:52:47;9.80;;;8.80;;
12171;SDS011;6149;52.418;13.668;2023-04-01T10:55:48;8.63;;;7.83;;
12171;SDS011;6149;52.418;13.668;2023-04-01T10:59:01;11.20;;;9.57;;
12171;SDS011;6149;52.418;13.668;2023-04-01T11:02:03;11.97;;;9.53;;
12171;SDS011;6149;52.418;13.668;2023-04-01T11:05:51;24.73;;;13.20;;
12171;SDS011;6149;52.418;13.668;2023-04-01T11:19:09;7.10;;;5.77;;
12171;SDS011;6149;52.418;13.668;2023-04-01T11:22:26;5.83;;;4.93;;
12171;SDS011;6149;52.418;13.668;2023-04-01T11:25:23;5.10;;;4.50;;
12171;SDS011;6149;52.418;13.668;2023-04-01T11:28:23;5.10;;;4.50;;
12171;SDS011;6149;52.418;13.668;2023-04-01T11:31:26;5.93;;;4.83;;
12171;SDS011;6149;52.418;13.668;2023-04-01T11:34:16;4.97;;;4.47;;
12171;SDS011;6149;52.418;13.668;2023-04-01T11:37:08;5.37;;;4.17;;
12171;SDS011;6149;52.418;13.668;2023-04-01T11:39:54;5.83;;;4.97;;
12171;SDS011;6149;52.418;13.668;2023-04-01T11:42:34;5.03;;;4.53;;
12171;SDS011;6149;52.418;13.668;2023-04-01T11:45:17;4.77;;;4.27;;
12171;SDS011;6149;52.418;13.668;2023-04-01T11:48:19;5.00;;;4.43;;
12171;SDS011;6149;52.418;13.668;2023-04-01T11:54:20;5.63;;;4.80;;
12171;SDS011;6149;52.418;13.668;2023-04-01T11:57:05;6.13;;;4.93;;
12171;SDS011;6149;52.418;13.668;2023-04-01T11:59:52;7.30;;;6.60;;
12171;SDS011;6149;52.418;13.668;2023-04-01T12:02:41;8.07;;;6.63;;
12171;SDS011;6149;52.418;13.668;2023-04-01T12:05:44;7.63;;;6.57;;
12171;SDS011;6149;52.418;13.668;2023-04-01T12:08:27;8.47;;;7.00;;
12171;SDS011;6149;52.418;13.668;2023-04-01T12:11:07;9.40;;;7.97;;
12171;SDS011;6149;52.418;13.668;2023-04-01T12:13:44;8.73;;;7.80;;
12171;SDS011;6149;52.418;13.668;2023-04-01T12:16:24;7.13;;;6.43;;
12171;SDS011;6149;52.418;13.668;2023-04-01T12:19:11;8.80;;;7.70;;
12171;SDS011;6149;52.418;13.668;2023-04-01T12:21:50;8.53;;;7.70;;
12171;SDS011;6149;52.418;13.668;2023-04-01T12:24:36;7.73;;;6.93;;
12171;SDS011;6149;52.418;13.668;2023-04-01T12:27:15;8.47;;;7.03;;
12171;SDS011;6149;52.418;13.668;2023-04-01T12:30:08;7.23;;;6.53;;
12171;SDS011;6149;52.418;13.668;2023-04-01T12:32:55;9.27;;;8.37;;
12171;SDS011;6149;52.418;13.668;2023-04-01T12:35:50;9.90;;;8.90;;
12171;SDS011;6149;52.418;13.668;2023-04-01T12:38:29;9.07;;;8.13;;
12171;SDS011;6149;52.418;13.668;2023-04-01T12:41:05;7.83;;;7.13;;
12171;SDS011;6149;52.418;13.668;2023-04-01T12:43:51;8.80;;;7.70;;
12171;SDS011;6149;52.418;13.668;2023-04-01T12:46:38;7.13;;;6.43;;
12171;SDS011;6149;52.418;13.668;2023-04-01T12:49:26;7.53;;;6.77;;
12171;SDS011;6149;52.418;13.668;2023-04-01T12:52:10;7.03;;;6.23;;
12171;SDS011;6149;52.418;13.668;2023-04-01T12:54:59;6.37;;;5.63;;
12171;SDS011;6149;52.418;13.668;2023-04-01T12:58:01;6.30;;;5.70;;
12171;SDS011;6149;52.418;13.668;2023-04-01T13:04:04;6.17;;;5.57;;
12171;SDS011;6149;52.418;13.668;2023-04-01T13:07:17;7.37;;;5.93;;
12171;SDS011;6149;52.418;13.668;2023-04-01T13:09:59;6.47;;;5.53;;
12171;SDS011;6149;52.418;13.668;2023-04-01T13:12:36;6.87;;;6.17;;
12171;SDS011;6149;52.418;13.668;2023-04-01T13:15:42;6.60;;;6.00;;
12171;SDS011;6149;52.418;13.668;2023-04-01T13:18:20;7.27;;;6.57;;
12171;SDS011;6149;52.418;13.668;2023-04-01T13:20:58;6.90;;;6.20;;
12171;SDS011;6149;52.418;13.668;2023-04-01T13:23:36;6.43;;;5.77;;
12171;SDS011;6149;52.418;13.668;2023-04-01T13:26:20;7.17;;;6.03;;
12171;SDS011;6149;52.418;13.668;2023-04-01T13:28:56;7.77;;;5.93;;
12171;SDS011;6149;52.418;13.668;2023-04-01T13:31:37;6.43;;;5.57;;
12171;SDS011;6149;52.418;13.668;2023-04-01T13:34:25;6.47;;;5.80;;
12171;SDS011;6149;52.418;13.668;2023-04-01T13:37:15;6.97;;;6.13;;
12171;SDS011;6149;52.418;13.668;2023-04-01T13:40:02;7.10;;;6.20;;
12171;SDS011;6149;52.418;13.668;2023-04-01T13:42:47;8.57;;;6.13;;
12171;SDS011;6149;52.418;13.668;2023-04-01T13:45:21;6.87;;;6.13;;
12171;SDS011;6149;52.418;13.668;2023-04-01T13:47:54;5.83;;;5.23;;
12171;SDS011;6149;52.418;13.668;2023-04-01T13:50:53;4.90;;;4.27;;
12171;SDS011;6149;52.418;13.668;2023-04-01T13:53:40;4.67;;;3.93;;
12171;SDS011;6149;52.418;13.668;2023-04-01T13:56:44;3.97;;;3.67;;
12171;SDS011;6149;52.418;13.668;2023-04-01T14:02:33;4.63;;;4.10;;
12171;SDS011;6149;52.418;13.668;2023-04-01T14:08:08;5.43;;;4.30;;
12171;SDS011;6149;52.418;13.668;2023-04-01T14:10:48;5.43;;;4.60;;
12171;SDS011;6149;52.418;13.668;2023-04-01T14:13:30;5.63;;;4.47;;
12171;SDS011;6149;52.418;13.668;2023-04-01T14:16:07;6.60;;;5.90;;
12171;SDS011;6149;52.418;13.668;2023-04-01T14:19:10;7.53;;;5.97;;
12171;SDS011;6149;52.418;13.668;2023-04-01T14:21:53;6.53;;;5.43;;
12171;SDS011;6149;52.418;13.668;2023-04-01T14:28:02;7.30;;;5.17;;
12171;SDS011;6149;52.418;13.668;2023-04-01T14:30:42;6.27;;;4.87;;
12171;SDS011;6149;52.418;13.668;2023-04-01T14:33:26;4.63;;;4.10;;
12171;SDS011;6149;52.418;13.668;2023-04-01T14:36:10;4.83;;;3.80;;
12171;SDS011;6149;52.418;13.668;2023-04-01T14:38:59;2.97;;;2.67;;
12171;SDS011;6149;52.418;13.668;2023-04-01T14:41:44;3.70;;;2.40;;
12171;SDS011;6149;52.418;13.668;2023-04-01T14:44:23;3.27;;;2.30;;
12171;SDS011;6149;52.418;13.668;2023-04-01T14:47:17;4.30;;;2.30;;
12171;SDS011;6149;52.418;13.668;2023-04-01T14:50:02;2.43;;;2.23;;
12171;SDS011;6149;52.418;13.668;2023-04-01T14:52:35;2.73;;;2.23;;
12171;SDS011;6149;52.418;13.668;2023-04-01T14:55:15;3.47;;;2.00;;
12171;SDS011;6149;52.418;13.668;2023-04-01T14:58:00;3.00;;;2.50;;
12171;SDS011;6149;52.418;13.668;2023-04-01T15:00:47;2.80;;;2.37;;
12171;SDS011;6149;52.418;13.668;2023-04-01T15:03:24;2.90;;;2.33;;
12171;SDS011;6149;52.418;13.668;2023-04-01T15:05:56;4.00;;;2.30;;
12171;SDS011;6149;52.418;13.668;2023-04-01T15:08:52;3.03;;;2.23;;
12171;SDS011;6149;52.418;13.668;2023-04-01T15:11:33;2.80;;;2.07;;
12171;SDS011;6149;52.418;13.668;2023-04-01T15:14:23;3.20;;;2.77;;
12171;SDS011;6149;52.418;13.668;2023-04-01T15:17:20;3.67;;;2.20;;
12171;SDS011;6149;52.418;13.668;2023-04-01T15:20:10;5.10;;;2.50;;
12171;SDS011;6149;52.418;13.668;2023-04-01T15:22:57;3.40;;;2.60;;
12171;SDS011;6149;52.418;13.668;2023-04-01T15:25:43;3.83;;;2.87;;
12171;SDS011;6149;52.418;13.668;2023-04-01T15:28:25;3.47;;;2.87;;
12171;SDS011;6149;52.418;13.668;2023-04-01T15:31:01;3.83;;;3.43;;
12171;SDS011;6149;52.418;13.668;2023-04-01T15:33:40;4.83;;;3.60;;
12171;SDS011;6149;52.418;13.668;2023-04-01T15:36:19;3.40;;;3.10;;
12171;SDS011;6149;52.418;13.668;2023-04-01T15:38:58;3.33;;;3.03;;
12171;SDS011;6149;52.418;13.668;2023-04-01T15:41:40;4.43;;;3.80;;
12171;SDS011;6149;52.418;13.668;2023-04-01T15:44:39;4.77;;;3.83;;
12171;SDS011;6149;52.418;13.668;2023-04-01T15:47:33;4.77;;;3.60;;
12171;SDS011;6149;52.418;13.668;2023-04-01T15:53:11;4.13;;;3.73;;
12171;SDS011;6149;52.418;13.668;2023-04-01T15:56:07;4.33;;;3.93;;
12171;SDS011;6149;52.418;13.668;2023-04-01T15:59:09;6.23;;;3.50;;
12171;SDS011;6149;52.418;13.668;2023-04-01T16:01:49;4.47;;;3.33;;
12171;SDS011;6149;52.418;13.668;2023-04-01T16:04:27;3.73;;;3.20;;
12171;SDS011;6149;52.418;13.668;2023-04-01T16:07:16;3.73;;;3.13;;
12171;SDS011;6149;52.418;13.668;2023-04-01T16:10:09;3.50;;;3.13;;
12171;SDS011;6149;52.418;13.668;2023-04-01T16:12:53;4.60;;;3.27;;
12171;SDS011;6149;52.418;13.668;2023-04-01T16:15:36;4.73;;;4.17;;
12171;SDS011;6149;52.418;13.668;2023-04-01T16:18:16;6.57;;;4.50;;
12171;SDS011;6149;52.418;13.668;2023-04-01T16:21:00;6.60;;;4.30;;
12171;SDS011;6149;52.418;13.668;2023-04-01T16:23:35;5.33;;;4.33;;
12171;SDS011;6149;52.418;13.668;2023-04-01T16:26:08;6.27;;;4.90;;
12171;SDS011;6149;52.418;13.668;2023-04-01T16:28:42;6.03;;;5.00;;
12171;SDS011;6149;52.418;13.668;2023-04-01T16:31:25;5.43;;;4.90;;
12171;SDS011;6149;52.418;13.668;2023-04-01T16:34:00;6.80;;;5.67;;
12171;SDS011;6149;52.418;13.668;2023-04-01T16:36:33;5.97;;;5.37;;
12171;SDS011;6149;52.418;13.668;2023-04-01T16:39:20;6.40;;;4.80;;
12171;SDS011;6149;52.418;13.668;2023-04-01T16:42:07;5.40;;;4.33;;
12171;SDS011;6149;52.418;13.668;2023-04-01T16:44:47;6.23;;;4.13;;
12171;SDS011;6149;52.418;13.668;2023-04-01T16:47:19;5.30;;;4.30;;
12171;SDS011;6149;52.418;13.668;2023-04-01T16:49:54;5.87;;;4.23;;
12171;SDS011;6149;52.418;13.668;2023-04-01T16:52:34;5.13;;;4.30;;
12171;SDS011;6149;52.418;13.668;2023-04-01T16:55:25;5.60;;;4.20;;
12171;SDS011;6149;52.418;13.668;2023-04-01T16:58:03;5.07;;;4.30;;
12171;SDS011;6149;52.418;13.668;2023-04-01T17:00:36;6.70;;;5.03;;
12171;SDS011;6149;52.418;13.668;2023-04-01T17:03:10;5.40;;;4.87;;
12171;SDS011;6149;52.418;13.668;2023-04-01T17:05:49;5.97;;;4.73;;
12171;SDS011;6149;52.418;13.668;2023-04-01T17:08:31;5.10;;;4.70;;
12171;SDS011;6149;52.418;13.668;2023-04-01T17:11:17;5.90;;;4.83;;
12171;SDS011;6149;52.418;13.668;2023-04-01T17:13:52;5.20;;;4.53;;
12171;SDS011;6149;52.418;13.668;2023-04-01T17:16:38;5.73;;;4.97;;
12171;SDS011;6149;52.418;13.668;2023-04-01T17:19:23;5.30;;;4.80;;
12171;SDS011;6149;52.418;13.668;2023-04-01T17:22:12;5.80;;;4.50;;
12171;SDS011;6149;52.418;13.668;2023-04-01T17:24:54;7.60;;;4.60;;
12171;SDS011;6149;52.418;13.668;2023-04-01T17:27:37;4.73;;;4.33;;
12171;SDS011;6149;52.418;13.668;2023-04-01T17:30:21;4.70;;;4.20;;
12171;SDS011;6149;52.418;13.668;2023-04-01T17:35:58;7.00;;;4.80;;
12171;SDS011;6149;52.418;13.668;2023-04-01T17:38:39;5.57;;;4.93;;
12171;SDS011;6149;52.418;13.668;2023-04-01T17:41:28;5.67;;;5.10;;
12171;SDS011;6149;52.418;13.668;2023-04-01T17:44:10;5.17;;;4.57;;
12171;SDS011;6149;52.418;13.668;2023-04-01T17:47:04;5.97;;;4.70;;
12171;SDS011;6149;52.418;13.668;2023-04-01T17:50:02;5.90;;;5.30;;
12171;SDS011;6149;52.418;13.668;2023-04-01T17:52:44;5.93;;;4.87;;
12171;SDS011;6149;52.418;13.668;2023-04-01T17:55:43;4.73;;;4.30;;
12171;SDS011;6149;52.418;13.668;2023-04-01T17:58:19;7.17;;;5.10;;
12171;SDS011;6149;52.418;13.668;2023-04-01T18:03:54;5.20;;;4.80;;
12171;SDS011;6149;52.418;13.668;2023-04-01T18:06:49;7.10;;;5.30;;
12171;SDS011;6149;52.418;13.668;2023-04-01T18:09:32;6.97;;;4.83;;
12171;SDS011;6149;52.418;13.668;2023-04-01T18:12:16;8.43;;;5.87;;
12171;SDS011;6149;52.418;13.668;2023-04-01T18:15:01;6.53;;;5.23;;
12171;SDS011;6149;52.418;13.668;2023-04-01T18:17:44;6.27;;;5.50;;
12171;SDS011;6149;52.418;13.668;2023-04-01T18:20:41;7.47;;;5.77;;
12171;SDS011;6149;52.418;13.668;2023-04-01T18:23:20;6.50;;;5.87;;
12171;SDS011;6149;52.418;13.668;2023-04-01T18:25:55;6.67;;;6.00;;
12171;SDS011;6149;52.418;13.668;2023-04-01T18:28:33;6.30;;;5.17;;
12171;SDS011;6149;52.418;13.668;2023-04-01T18:31:07;6.57;;;5.37;;
12171;SDS011;6149;52.418;13.668;2023-04-01T18:33:48;31.97;;;23.33;;
12171;SDS011;6149;52.418;13.668;2023-04-01T18:36:26;9.00;;;7.33;;
12171;SDS011;6149;52.418;13.668;2023-04-01T18:39:07;11.53;;;10.23;;
12171;SDS011;6149;52.418;13.668;2023-04-01T18:41:42;6.33;;;5.73;;
12171;SDS011;6149;52.418;13.668;2023-04-01T18:44:25;9.07;;;7.40;;
12171;SDS011;6149;52.418;13.668;2023-04-01T18:46:59;8.10;;;6.13;;
12171;SDS011;6149;52.418;13.668;2023-04-01T18:49:41;8.50;;;6.50;;
12171;SDS011;6149;52.418;13.668;2023-04-01T18:52:15;7.63;;;5.90;;
12171;SDS011;6149;52.418;13.668;2023-04-01T18:54:48;7.57;;;6.47;;
12171;SDS011;6149;52.418;13.668;2023-04-01T18:57:48;8.60;;;6.57;;
12171;SDS011;6149;52.418;13.668;2023-04-01T19:00:19;7.53;;;6.13;;
12171;SDS011;6149;52.418;13.668;2023-04-01T19:02:48;12.57;;;10.67;;
12171;SDS011;6149;52.418;13.668;2023-04-01T19:05:23;10.37;;;7.47;;
12171;SDS011;6149;52.418;13.668;2023-04-01T19:08:12;10.23;;;8.30;;
12171;SDS011;6149;52.418;13.668;2023-04-01T19:10:48;10.53;;;7.80;;
12171;SDS011;6149;52.418;13.668;2023-04-01T19:13:29;8.97;;;7.33;;
12171;SDS011;6149;52.418;13.668;2023-04-01T19:16:12;10.23;;;7.50;;
12171;SDS011;6149;52.418;13.668;2023-04-01T19:18:59;9.50;;;7.40;;
12171;SDS011;6149;52.418;13.668;2023-04-01T19:21:38;9.33;;;8.03;;
12171;SDS011;6149;52.418;13.668;2023-04-01T19:24:23;7.40;;;6.10;;
12171;SDS011;6149;52.418;13.668;2023-04-01T19:27:25;8.13;;;6.30;;
12171;SDS011;6149;52.418;13.668;2023-04-01T19:33:12;8.60;;;7.00;;
12171;SDS011;6149;52.418;13.668;2023-04-01T19:35:53;9.33;;;6.97;;
12171;SDS011;6149;52.418;13.668;2023-04-01T19:38:30;10.23;;;7.60;;
12171;SDS011;6149;52.418;13.668;2023-04-01T19:41:03;9.70;;;7.13;;
12171;SDS011;6149;52.418;13.668;2023-04-01T19:43:50;7.47;;;6.67;;
12171;SDS011;6149;52.418;13.668;2023-04-01T19:46:30;10.70;;;7.73;;
12171;SDS011;6149;52.418;13.668;2023-04-01T19:49:05;10.17;;;8.60;;
12171;SDS011;6149;52.418;13.668;2023-04-01T19:51:44;11.70;;;7.90;;
12171;SDS011;6149;52.418;13.668;2023-04-01T19:54:23;9.40;;;7.80;;
12171;SDS011;6149;52.418;13.668;2023-04-01T19:57:00;10.17;;;7.57;;
12171;SDS011;6149;52.418;13.668;2023-04-01T19:59:43;11.00;;;8.17;;
12171;SDS011;6149;52.418;13.668;2023-04-01T20:02:27;9.67;;;8.10;;
12171;SDS011;6149;52.418;13.668;2023-04-01T20:05:16;9.93;;;8.33;;
12171;SDS011;6149;52.418;13.668;2023-04-01T20:07:55;12.23;;;9.10;;
12171;SDS011;6149;52.418;13.668;2023-04-01T20:10:29;12.53;;;8.60;;
12171;SDS011;6149;52.418;13.668;2023-04-01T20:13:05;14.87;;;12.50;;
12171;SDS011;6149;52.418;13.668;2023-04-01T20:15:40;12.30;;;10.10;;
12171;SDS011;6149;52.418;13.668;2023-04-01T20:18:13;18.77;;;10.90;;
12171;SDS011;6149;52.418;13.668;2023-04-01T20:20:51;14.47;;;10.00;;
12171;SDS011;6149;52.418;13.668;2023-04-01T20:23:25;15.23;;;11.27;;
12171;SDS011;6149;52.418;13.668;2023-04-01T20:26:06;16.90;;;8.83;;
12171;SDS011;6149;52.418;13.668;2023-04-01T20:28:42;14.03;;;9.90;;
12171;SDS011;6149;52.418;13.668;2023-04-01T20:31:23;14.23;;;9.87;;
12171;SDS011;6149;52.418;13.668;2023-04-01T20:34:06;14.30;;;9.63;;
12171;SDS011;6149;52.418;13.668;2023-04-01T20:36:54;15.90;;;10.60;;
12171;SDS011;6149;52.418;13.668;2023-04-01T20:39:39;13.57;;;9.30;;
12171;SDS011;6149;52.418;13.668;2023-04-01T20:42:23;14.07;;;10.53;;
12171;SDS011;6149;52.418;13.668;2023-04-01T20:45:04;14.20;;;10.43;;
12171;SDS011;6149;52.418;13.668;2023-04-01T20:47:46;15.00;;;10.73;;
12171;SDS011;6149;52.418;13.668;2023-04-01T20:50:27;14.37;;;10.60;;
12171;SDS011;6149;52.418;13.668;2023-04-01T20:53:01;18.07;;;10.87;;
12171;SDS011;6149;52.418;13.668;2023-04-01T20:55:52;15.63;;;10.70;;
12171;SDS011;6149;52.418;13.668;2023-04-01T20:58:57;17.23;;;10.20;;
12171;SDS011;6149;52.418;13.668;2023-04-01T21:01:46;15.10;;;10.50;;
12171;SDS011;6149;52.418;13.668;2023-04-01T21:04:22;14.53;;;9.97;;
12171;SDS011;6149;52.418;13.668;2023-04-01T21:09:53;13.70;;;9.10;;
12171;SDS011;6149;52.418;13.668;2023-04-01T21:12:36;13.00;;;8.53;;
12171;SDS011;6149;52.418;13.668;2023-04-01T21:18:21;12.63;;;8.87;;
12171;SDS011;6149;52.418;13.668;2023-04-01T21:24:25;14.80;;;8.53;;
12171;SDS011;6149;52.418;13.668;2023-04-01T21:27:07;13.23;;;8.20;;
12171;SDS011;6149;52.418;13.668;2023-04-01T21:29:51;12.27;;;7.33;;
12171;SDS011;6149;52.418;13.668;2023-04-01T21:32:28;11.53;;;8.33;;
12171;SDS011;6149;52.418;13.668;2023-04-01T21:35:14;11.80;;;7.80;;
12171;SDS011;6149;52.418;13.668;2023-04-01T21:37:58;15.03;;;8.63;;
12171;SDS011;6149;52.418;13.668;2023-04-01T21:40:47;13.63;;;9.67;;
12171;SDS011;6149;52.418;13.668;2023-04-01T21:43:39;18.00;;;9.03;;
12171;SDS011;6149;52.418;13.668;2023-04-01T21:49:44;12.23;;;8.77;;
12171;SDS011;6149;52.418;13.668;2023-04-01T21:52:55;13.57;;;8.50;;
12171;SDS011;6149;52.418;13.668;2023-04-01T21:59:12;13.60;;;8.53;;
12171;SDS011;6149;52.418;13.668;2023-04-01T22:05:07;11.37;;;7.77;;
12171;SDS011;6149;52.418;13.668;2023-04-01T22:07:40;11.83;;;7.73;;
12171;SDS011;6149;52.418;13.668;2023-04-01T22:10:18;10.07;;;6.93;;
12171;SDS011;6149;52.418;13.668;2023-04-01T22:12:54;12.03;;;7.50;;
12171;SDS011;6149;52.418;13.668;2023-04-01T22:15:44;11.30;;;6.80;;
12171;SDS011;6149;52.418;13.668;2023-04-01T22:18:24;9.30;;;6.07;;
12171;SDS011;6149;52.418;13.668;2023-04-01T22:21:00;7.50;;;5.93;;
12171;SDS011;6149;52.418;13.668;2023-04-01T22:23:36;9.00;;;6.40;;
12171;SDS011;6149;52.418;13.668;2023-04-01T22:26:14;9.27;;;5.60;;
12171;SDS011;6149;52.418;13.668;2023-04-01T22:28:51;9.73;;;6.30;;
12171;SDS011;6149;52.418;13.668;2023-04-01T22:31:26;9.63;;;6.40;;
12171;SDS011;6149;52.418;13.668;2023-04-01T22:34:01;11.50;;;5.80;;
12171;SDS011;6149;52.418;13.668;2023-04-01T22:36:38;8.80;;;5.50;;
12171;SDS011;6149;52.418;13.668;2023-04-01T22:39:21;8.00;;;5.67;;
12171;SDS011;6149;52.418;13.668;2023-04-01T22:42:09;8.73;;;5.67;;
12171;SDS011;6149;52.418;13.668;2023-04-01T22:44:51;8.93;;;6.00;;
12171;SDS011;6149;52.418;13.668;2023-04-01T22:47:33;9.80;;;5.73;;
12171;SDS011;6149;52.418;13.668;2023-04-01T22:50:08;8.07;;;4.83;;
12171;SDS011;6149;52.418;13.668;2023-04-01T22:52:41;7.20;;;5.70;;
12171;SDS011;6149;52.418;13.668;2023-04-01T22:55:12;8.80;;;5.93;;
12171;SDS011;6149;52.418;13.668;2023-04-01T22:57:46;7.80;;;5.40;;
12171;SDS011;6149;52.418;13.668;2023-04-01T23:00:18;9.23;;;5.73;;
12171;SDS011;6149;52.418;13.668;2023-04-01T23:03:00;9.63;;;6.00;;
12171;SDS011;6149;52.418;13.668;2023-04-01T23:05:35;7.87;;;5.47;;
12171;SDS011;6149;52.418;13.668;2023-04-01T23:08:20;8.80;;;5.63;;
12171;SDS011;6149;52.418;13.668;2023-04-01T23:11:12;10.37;;;6.13;;
12171;SDS011;6149;52.418;13.668;2023-04-01T23:13:45;8.87;;;5.73;;
12171;SDS011;6149;52.418;13.668;2023-04-01T23:16:18;9.90;;;6.13;;
12171;SDS011;6149;52.418;13.668;2023-04-01T23:18:55;7.93;;;6.00;;
12171;SDS011;6149;52.418;13.668;2023-04-01T23:21:29;9.33;;;5.60;;
12171;SDS011;6149;52.418;13.668;2023-04-01T23:24:05;8.53;;;5.70;;
12171;SDS011;6149;52.418;13.668;2023-04-01T23:26:43;9.27;;;5.93;;
12171;SDS011;6149;52.418;13.668;2023-04-01T23:29:18;10.53;;;5.80;;
12171;SDS011;6149;52.418;13.668;2023-04-01T23:31:47;10.37;;;5.50;;
12171;SDS011;6149;52.418;13.668;2023-04-01T23:34:20;7.30;;;5.53;;
12171;SDS011;6149;52.418;13.668;2023-04-01T23:36:53;9.10;;;5.73;;
12171;SDS011;6149;52.418;13.668;2023-04-01T23:39:25;9.07;;;5.27;;
12171;SDS011;6149;52.418;13.668;2023-04-01T23:41:56;8.00;;;5.60;;
12171;SDS011;6149;52.418;13.668;2023-04-01T23:44:28;7.33;;;4.93;;
12171;SDS011;6149;52.418;13.668;2023-04-01T23:46:56;9.60;;;5.73;;
12171;SDS011;6149;52.418;13.668;2023-04-01T23:49:28;12.37;;;5.80;;
12171;SDS011;6149;52.418;13.668;2023-04-01T23:52:03;8.17;;;4.77;;
12171;SDS011;6149;52.418;13.668;2023-04-01T23:54:39;9.23;;;4.67;;
12171;SDS011;6149;52.418;13.668;2023-04-01T23:57:11;8.17;;;5.50;;
12171;SDS011;6149;52.418;13.668;2023-04-01T23:59:41;9.53;;;5.23;;
